sensor_id;sensor_type;location;lat;lon;timestamp;P1;durP1;ratioP1;P2;durP2;ratioP2
21000;SDS011;10658;50.920;12.238;2023-03-19T00:00:55;9.45;;;7.05;;
21000;SDS011;10658;50.920;12.238;2023-03-19T00:04:55;10.57;;;6.88;;
21000;SDS011;10658;50.920;12.238;2023-03-19T00:08:56;10.95;;;6.85;;
21000;SDS011;10658;50.920;12.238;2023-03-19T00:12:57;14.40;;;8.35;;
21000;SDS011;10658;50.920;12.238;2023-03-19T00:16:58;12.18;;;7.85;;
21000;SDS011;10658;50.920;12.238;2023-03-19T00:20:59;12.32;;;7.80;;
21000;SDS011;10658;50.920;12.238;2023-03-19T00:25:00;14.73;;;7.43;;
21000;SDS011;10658;50.920;12.238;2023-03-19T00:29:01;12.55;;;8.18;;
21000;SDS011;10658;50.920;12.238;2023-03-19T00:33:03;10.13;;;7.28;;
21000;SDS011;10658;50.920;12.238;2023-03-19T00:37:03;11.32;;;7.13;;
21000;SDS011;10658;50.920;12.238;2023-03-19T00:41:04;10.95;;;7.82;;
21000;SDS011;10658;50.920;12.238;2023-03-19T00:45:07;15.73;;;8.98;;
21000;SDS011;10658;50.920;12.238;2023-03-19T00:49:08;14.25;;;8.18;;
21000;SDS011;10658;50.920;12.238;2023-03-19T00:53:09;14.80;;;8.55;;
21000;SDS011;10658;50.920;12.238;2023-03-19T00:57:10;13.13;;;8.38;;
21000;SDS011;10658;50.920;12.238;2023-03-19T01:01:11;13.35;;;7.65;;
21000;SDS011;10658;50.920;12.238;2023-03-19T01:05:16;13.57;;;8.57;;
21000;SDS011;10658;50.920;12.238;2023-03-19T01:09:16;11.90;;;7.80;;
21000;SDS011;10658;50.920;12.238;2023-03-19T01:13:17;10.88;;;8.27;;
21000;SDS011;10658;50.920;12.238;2023-03-19T01:17:18;9.98;;;7.60;;
21000;SDS011;10658;50.920;12.238;2023-03-19T01:21:19;10.13;;;7.88;;
21000;SDS011;10658;50.920;12.238;2023-03-19T01:25:22;12.77;;;7.72;;
21000;SDS011;10658;50.920;12.238;2023-03-19T01:29:34;13.20;;;7.97;;
21000;SDS011;10658;50.920;12.238;2023-03-19T01:33:50;13.50;;;7.97;;
21000;SDS011;10658;50.920;12.238;2023-03-19T01:38:14;12.82;;;7.97;;
21000;SDS011;10658;50.920;12.238;2023-03-19T01:42:17;10.52;;;8.15;;
21000;SDS011;10658;50.920;12.238;2023-03-19T01:46:33;10.43;;;7.20;;
21000;SDS011;10658;50.920;12.238;2023-03-19T01:50:50;12.52;;;7.95;;
21000;SDS011;10658;50.920;12.238;2023-03-19T01:55:02;15.55;;;8.52;;
21000;SDS011;10658;50.920;12.238;2023-03-19T01:59:24;13.55;;;7.80;;
21000;SDS011;10658;50.920;12.238;2023-03-19T02:03:50;11.18;;;7.80;;
21000;SDS011;10658;50.920;12.238;2023-03-19T02:08:00;11.52;;;7.85;;
21000;SDS011;10658;50.920;12.238;2023-03-19T02:12:04;14.27;;;8.27;;
21000;SDS011;10658;50.920;12.238;2023-03-19T02:16:05;15.35;;;8.25;;
21000;SDS011;10658;50.920;12.238;2023-03-19T02:20:43;13.35;;;7.90;;
21000;SDS011;10658;50.920;12.238;2023-03-19T02:24:38;12.18;;;7.47;;
21000;SDS011;10658;50.920;12.238;2023-03-19T02:28:53;13.60;;;9.13;;
21000;SDS011;10658;50.920;12.238;2023-03-19T02:33:00;13.55;;;8.13;;
21000;SDS011;10658;50.920;12.238;2023-03-19T02:37:05;13.13;;;8.30;;
21000;SDS011;10658;50.920;12.238;2023-03-19T02:41:17;14.07;;;8.82;;
21000;SDS011;10658;50.920;12.238;2023-03-19T02:45:18;12.77;;;8.05;;
21000;SDS011;10658;50.920;12.238;2023-03-19T02:49:20;12.55;;;8.02;;
21000;SDS011;10658;50.920;12.238;2023-03-19T02:53:21;12.45;;;8.48;;
21000;SDS011;10658;50.920;12.238;2023-03-19T02:57:22;10.55;;;7.25;;
21000;SDS011;10658;50.920;12.238;2023-03-19T03:01:22;11.38;;;7.75;;
21000;SDS011;10658;50.920;12.238;2023-03-19T03:05:23;12.30;;;7.50;;
21000;SDS011;10658;50.920;12.238;2023-03-19T03:09:25;11.75;;;8.40;;
21000;SDS011;10658;50.920;12.238;2023-03-19T03:13:26;13.80;;;8.82;;
21000;SDS011;10658;50.920;12.238;2023-03-19T03:17:27;14.07;;;8.65;;
21000;SDS011;10658;50.920;12.238;2023-03-19T03:21:28;13.90;;;7.75;;
21000;SDS011;10658;50.920;12.238;2023-03-19T03:25:29;8.60;;;6.45;;
21000;SDS011;10658;50.920;12.238;2023-03-19T03:29:30;15.52;;;8.82;;
21000;SDS011;10658;50.920;12.238;2023-03-19T03:33:31;15.10;;;9.48;;
21000;SDS011;10658;50.920;12.238;2023-03-19T03:37:32;13.15;;;7.70;;
21000;SDS011;10658;50.920;12.238;2023-03-19T03:41:33;14.27;;;8.48;;
21000;SDS011;10658;50.920;12.238;2023-03-19T03:45:35;12.98;;;8.43;;
21000;SDS011;10658;50.920;12.238;2023-03-19T03:49:36;10.40;;;7.47;;
21000;SDS011;10658;50.920;12.238;2023-03-19T03:53:37;10.35;;;7.25;;
21000;SDS011;10658;50.920;12.238;2023-03-19T03:57:39;10.55;;;7.05;;
21000;SDS011;10658;50.920;12.238;2023-03-19T04:01:40;13.73;;;7.82;;
21000;SDS011;10658;50.920;12.238;2023-03-19T04:05:40;11.65;;;7.00;;
21000;SDS011;10658;50.920;12.238;2023-03-19T04:09:43;9.15;;;6.85;;
21000;SDS011;10658;50.920;12.238;2023-03-19T04:13:45;13.18;;;7.82;;
21000;SDS011;10658;50.920;12.238;2023-03-19T04:17:47;10.52;;;6.10;;
21000;SDS011;10658;50.920;12.238;2023-03-19T04:21:48;11.13;;;7.22;;
21000;SDS011;10658;50.920;12.238;2023-03-19T04:25:49;13.10;;;7.10;;
21000;SDS011;10658;50.920;12.238;2023-03-19T04:29:51;10.75;;;7.13;;
21000;SDS011;10658;50.920;12.238;2023-03-19T04:33:53;11.75;;;7.72;;
21000;SDS011;10658;50.920;12.238;2023-03-19T04:37:53;7.25;;;5.85;;
21000;SDS011;10658;50.920;12.238;2023-03-19T04:41:55;12.65;;;6.70;;
21000;SDS011;10658;50.920;12.238;2023-03-19T04:46:09;7.80;;;6.00;;
21000;SDS011;10658;50.920;12.238;2023-03-19T04:50:10;9.88;;;6.55;;
21000;SDS011;10658;50.920;12.238;2023-03-19T04:54:14;12.23;;;6.50;;
21000;SDS011;10658;50.920;12.238;2023-03-19T04:58:15;11.38;;;6.82;;
21000;SDS011;10658;50.920;12.238;2023-03-19T05:02:17;9.20;;;6.43;;
21000;SDS011;10658;50.920;12.238;2023-03-19T05:06:18;9.30;;;6.32;;
21000;SDS011;10658;50.920;12.238;2023-03-19T05:10:19;11.18;;;7.32;;
21000;SDS011;10658;50.920;12.238;2023-03-19T05:14:20;11.60;;;7.05;;
21000;SDS011;10658;50.920;12.238;2023-03-19T05:18:39;10.18;;;7.05;;
21000;SDS011;10658;50.920;12.238;2023-03-19T05:22:40;11.73;;;7.70;;
21000;SDS011;10658;50.920;12.238;2023-03-19T05:26:41;8.48;;;7.13;;
21000;SDS011;10658;50.920;12.238;2023-03-19T05:30:54;11.27;;;7.95;;
21000;SDS011;10658;50.920;12.238;2023-03-19T05:34:59;12.77;;;7.45;;
21000;SDS011;10658;50.920;12.238;2023-03-19T05:39:01;12.45;;;7.85;;
21000;SDS011;10658;50.920;12.238;2023-03-19T05:43:10;14.77;;;8.48;;
21000;SDS011;10658;50.920;12.238;2023-03-19T05:47:12;11.80;;;7.70;;
21000;SDS011;10658;50.920;12.238;2023-03-19T05:51:19;12.02;;;7.90;;
21000;SDS011;10658;50.920;12.238;2023-03-19T05:55:20;11.57;;;7.15;;
21000;SDS011;10658;50.920;12.238;2023-03-19T05:59:28;12.68;;;7.63;;
21000;SDS011;10658;50.920;12.238;2023-03-19T06:03:46;9.02;;;6.70;;
21000;SDS011;10658;50.920;12.238;2023-03-19T06:07:48;10.98;;;7.72;;
21000;SDS011;10658;50.920;12.238;2023-03-19T06:11:56;10.43;;;7.20;;
21000;SDS011;10658;50.920;12.238;2023-03-19T06:16:16;14.85;;;8.30;;
21000;SDS011;10658;50.920;12.238;2023-03-19T06:20:25;15.48;;;9.18;;
21000;SDS011;10658;50.920;12.238;2023-03-19T06:24:26;11.00;;;7.55;;
21000;SDS011;10658;50.920;12.238;2023-03-19T06:28:29;13.65;;;7.85;;
21000;SDS011;10658;50.920;12.238;2023-03-19T06:32:30;13.05;;;7.43;;
21000;SDS011;10658;50.920;12.238;2023-03-19T06:36:37;12.63;;;8.27;;
21000;SDS011;10658;50.920;12.238;2023-03-19T06:40:38;18.20;;;8.13;;
21000;SDS011;10658;50.920;12.238;2023-03-19T06:44:39;13.63;;;7.97;;
21000;SDS011;10658;50.920;12.238;2023-03-19T06:48:40;12.40;;;7.20;;
21000;SDS011;10658;50.920;12.238;2023-03-19T06:52:41;11.15;;;7.32;;
21000;SDS011;10658;50.920;12.238;2023-03-19T06:56:42;11.10;;;7.80;;
21000;SDS011;10658;50.920;12.238;2023-03-19T07:00:42;10.35;;;6.85;;
21000;SDS011;10658;50.920;12.238;2023-03-19T07:04:43;13.20;;;8.07;;
21000;SDS011;10658;50.920;12.238;2023-03-19T07:08:44;13.30;;;8.40;;
21000;SDS011;10658;50.920;12.238;2023-03-19T07:12:45;13.85;;;8.32;;
21000;SDS011;10658;50.920;12.238;2023-03-19T07:16:46;12.85;;;7.90;;
21000;SDS011;10658;50.920;12.238;2023-03-19T07:20:47;12.13;;;8.32;;
21000;SDS011;10658;50.920;12.238;2023-03-19T07:24:48;12.93;;;8.15;;
21000;SDS011;10658;50.920;12.238;2023-03-19T07:28:48;12.40;;;7.57;;
21000;SDS011;10658;50.920;12.238;2023-03-19T07:32:49;12.35;;;8.35;;
21000;SDS011;10658;50.920;12.238;2023-03-19T07:36:50;13.27;;;7.95;;
21000;SDS011;10658;50.920;12.238;2023-03-19T07:40:52;13.48;;;6.95;;
21000;SDS011;10658;50.920;12.238;2023-03-19T07:44:52;12.90;;;8.30;;
21000;SDS011;10658;50.920;12.238;2023-03-19T07:48:53;11.02;;;7.43;;
21000;SDS011;10658;50.920;12.238;2023-03-19T07:52:54;9.57;;;6.95;;
21000;SDS011;10658;50.920;12.238;2023-03-19T07:56:55;10.50;;;7.57;;
21000;SDS011;10658;50.920;12.238;2023-03-19T08:00:56;11.50;;;6.88;;
21000;SDS011;10658;50.920;12.238;2023-03-19T08:04:57;12.73;;;6.90;;
21000;SDS011;10658;50.920;12.238;2023-03-19T08:09:01;13.32;;;7.57;;
21000;SDS011;10658;50.920;12.238;2023-03-19T08:13:01;15.18;;;7.10;;
21000;SDS011;10658;50.920;12.238;2023-03-19T08:17:04;10.23;;;6.57;;
21000;SDS011;10658;50.920;12.238;2023-03-19T08:21:05;10.57;;;7.32;;
21000;SDS011;10658;50.920;12.238;2023-03-19T08:25:06;13.13;;;7.65;;
21000;SDS011;10658;50.920;12.238;2023-03-19T08:29:08;9.52;;;7.30;;
21000;SDS011;10658;50.920;12.238;2023-03-19T08:33:08;9.65;;;6.35;;
21000;SDS011;10658;50.920;12.238;2023-03-19T08:37:09;7.85;;;6.50;;
21000;SDS011;10658;50.920;12.238;2023-03-19T08:41:10;14.05;;;6.95;;
21000;SDS011;10658;50.920;12.238;2023-03-19T08:45:11;10.80;;;6.28;;
21000;SDS011;10658;50.920;12.238;2023-03-19T08:49:13;8.88;;;5.88;;
21000;SDS011;10658;50.920;12.238;2023-03-19T08:53:14;6.43;;;5.45;;
21000;SDS011;10658;50.920;12.238;2023-03-19T08:57:15;10.23;;;6.93;;
21000;SDS011;10658;50.920;12.238;2023-03-19T09:01:16;12.70;;;7.55;;
21000;SDS011;10658;50.920;12.238;2023-03-19T09:05:17;12.40;;;7.40;;
21000;SDS011;10658;50.920;12.238;2023-03-19T09:09:22;10.23;;;6.05;;
21000;SDS011;10658;50.920;12.238;2023-03-19T09:13:23;10.95;;;6.47;;
21000;SDS011;10658;50.920;12.238;2023-03-19T09:17:24;8.38;;;5.85;;
21000;SDS011;10658;50.920;12.238;2023-03-19T09:21:25;12.70;;;9.55;;
21000;SDS011;10658;50.920;12.238;2023-03-19T09:25:26;7.22;;;5.25;;
21000;SDS011;10658;50.920;12.238;2023-03-19T09:29:27;6.32;;;5.07;;
21000;SDS011;10658;50.920;12.238;2023-03-19T09:33:27;9.95;;;5.57;;
21000;SDS011;10658;50.920;12.238;2023-03-19T09:37:28;8.00;;;5.55;;
21000;SDS011;10658;50.920;12.238;2023-03-19T09:41:48;8.13;;;5.20;;
21000;SDS011;10658;50.920;12.238;2023-03-19T09:45:51;6.95;;;4.60;;
21000;SDS011;10658;50.920;12.238;2023-03-19T09:49:54;6.88;;;3.95;;
21000;SDS011;10658;50.920;12.238;2023-03-19T09:54:01;7.22;;;3.40;;
21000;SDS011;10658;50.920;12.238;2023-03-19T09:58:09;5.13;;;3.20;;
21000;SDS011;10658;50.920;12.238;2023-03-19T10:06:28;7.28;;;3.78;;
21000;SDS011;10658;50.920;12.238;2023-03-19T10:25:50;6.50;;;3.42;;
21000;SDS011;10658;50.920;12.238;2023-03-19T10:39:36;5.13;;;2.63;;
21000;SDS011;10658;50.920;12.238;2023-03-19T10:43:46;4.70;;;2.80;;
21000;SDS011;10658;50.920;12.238;2023-03-19T10:47:59;2.72;;;2.17;;
21000;SDS011;10658;50.920;12.238;2023-03-19T10:52:02;3.35;;;2.45;;
21000;SDS011;10658;50.920;12.238;2023-03-19T10:56:05;3.50;;;2.30;;
21000;SDS011;10658;50.920;12.238;2023-03-19T11:00:17;3.67;;;2.10;;
21000;SDS011;10658;50.920;12.238;2023-03-19T11:04:22;3.08;;;2.40;;
21000;SDS011;10658;50.920;12.238;2023-03-19T11:08:25;4.50;;;2.17;;
21000;SDS011;10658;50.920;12.238;2023-03-19T11:12:29;2.70;;;2.30;;
21000;SDS011;10658;50.920;12.238;2023-03-19T11:16:45;3.88;;;2.60;;
21000;SDS011;10658;50.920;12.238;2023-03-19T11:20:57;5.65;;;2.40;;
21000;SDS011;10658;50.920;12.238;2023-03-19T11:25:06;6.00;;;2.60;;
21000;SDS011;10658;50.920;12.238;2023-03-19T11:29:19;4.65;;;2.60;;
21000;SDS011;10658;50.920;12.238;2023-03-19T11:37:42;2.50;;;1.55;;
21000;SDS011;10658;50.920;12.238;2023-03-19T11:46:10;4.03;;;1.73;;
21000;SDS011;10658;50.920;12.238;2023-03-19T11:55:11;3.17;;;1.88;;
21000;SDS011;10658;50.920;12.238;2023-03-19T12:08:27;4.45;;;1.80;;
21000;SDS011;10658;50.920;12.238;2023-03-19T12:42:16;2.60;;;1.40;;
21000;SDS011;10658;50.920;12.238;2023-03-19T12:46:23;2.42;;;1.58;;
21000;SDS011;10658;50.920;12.238;2023-03-19T12:50:28;4.50;;;1.75;;
21000;SDS011;10658;50.920;12.238;2023-03-19T12:54:33;2.95;;;1.50;;
21000;SDS011;10658;50.920;12.238;2023-03-19T13:03:06;2.20;;;1.35;;
21000;SDS011;10658;50.920;12.238;2023-03-19T13:07:12;2.88;;;2.05;;
21000;SDS011;10658;50.920;12.238;2023-03-19T13:11:30;1.83;;;1.20;;
21000;SDS011;10658;50.920;12.238;2023-03-19T13:15:38;2.75;;;1.50;;
21000;SDS011;10658;50.920;12.238;2023-03-19T13:19:47;2.10;;;1.27;;
21000;SDS011;10658;50.920;12.238;2023-03-19T13:28:28;1.30;;;1.00;;
21000;SDS011;10658;50.920;12.238;2023-03-19T13:36:38;3.15;;;1.58;;
21000;SDS011;10658;50.920;12.238;2023-03-19T13:40:47;3.95;;;2.50;;
21000;SDS011;10658;50.920;12.238;2023-03-19T13:44:50;3.80;;;1.52;;
21000;SDS011;10658;50.920;12.238;2023-03-19T13:49:42;2.65;;;1.75;;
21000;SDS011;10658;50.920;12.238;2023-03-19T13:57:39;8.30;;;4.57;;
21000;SDS011;10658;50.920;12.238;2023-03-19T14:01:41;2.38;;;1.98;;
21000;SDS011;10658;50.920;12.238;2023-03-19T14:05:46;2.58;;;2.38;;
21000;SDS011;10658;50.920;12.238;2023-03-19T14:10:34;2.55;;;1.60;;
21000;SDS011;10658;50.920;12.238;2023-03-19T14:14:22;1.50;;;1.35;;
21000;SDS011;10658;50.920;12.238;2023-03-19T14:18:24;2.72;;;1.88;;
21000;SDS011;10658;50.920;12.238;2023-03-19T14:22:34;3.22;;;1.77;;
21000;SDS011;10658;50.920;12.238;2023-03-19T14:26:38;1.98;;;1.70;;
21000;SDS011;10658;50.920;12.238;2023-03-19T14:30:46;5.13;;;2.97;;
21000;SDS011;10658;50.920;12.238;2023-03-19T14:34:50;6.50;;;4.53;;
21000;SDS011;10658;50.920;12.238;2023-03-19T14:38:54;7.00;;;4.20;;
21000;SDS011;10658;50.920;12.238;2023-03-19T14:43:06;9.50;;;5.65;;
21000;SDS011;10658;50.920;12.238;2023-03-19T14:55:33;4.78;;;3.65;;
21000;SDS011;10658;50.920;12.238;2023-03-19T14:59:37;3.45;;;2.55;;
21000;SDS011;10658;50.920;12.238;2023-03-19T15:03:39;3.28;;;2.78;;
21000;SDS011;10658;50.920;12.238;2023-03-19T15:07:42;2.70;;;1.73;;
21000;SDS011;10658;50.920;12.238;2023-03-19T15:16:14;3.65;;;2.40;;
21000;SDS011;10658;50.920;12.238;2023-03-19T15:20:19;2.42;;;1.88;;
21000;SDS011;10658;50.920;12.238;2023-03-19T15:24:27;5.53;;;2.38;;
21000;SDS011;10658;50.920;12.238;2023-03-19T15:28:32;3.25;;;2.15;;
21000;SDS011;10658;50.920;12.238;2023-03-19T15:32:42;2.33;;;2.13;;
21000;SDS011;10658;50.920;12.238;2023-03-19T15:36:48;6.47;;;3.83;;
21000;SDS011;10658;50.920;12.238;2023-03-19T15:40:52;9.70;;;7.03;;
21000;SDS011;10658;50.920;12.238;2023-03-19T15:44:54;6.50;;;4.18;;
21000;SDS011;10658;50.920;12.238;2023-03-19T15:49:07;7.43;;;3.90;;
21000;SDS011;10658;50.920;12.238;2023-03-19T15:53:14;17.23;;;8.18;;
21000;SDS011;10658;50.920;12.238;2023-03-19T15:57:20;12.40;;;6.80;;
21000;SDS011;10658;50.920;12.238;2023-03-19T16:01:23;6.82;;;5.03;;
21000;SDS011;10658;50.920;12.238;2023-03-19T16:05:26;14.07;;;8.20;;
21000;SDS011;10658;50.920;12.238;2023-03-19T16:13:30;7.93;;;5.18;;
21000;SDS011;10658;50.920;12.238;2023-03-19T16:17:37;4.63;;;3.55;;
21000;SDS011;10658;50.920;12.238;2023-03-19T16:21:38;3.55;;;2.45;;
21000;SDS011;10658;50.920;12.238;2023-03-19T16:25:42;5.15;;;4.03;;
21000;SDS011;10658;50.920;12.238;2023-03-19T16:29:54;4.60;;;3.60;;
21000;SDS011;10658;50.920;12.238;2023-03-19T16:33:56;19.13;;;9.25;;
21000;SDS011;10658;50.920;12.238;2023-03-19T16:38:13;18.42;;;9.68;;
21000;SDS011;10658;50.920;12.238;2023-03-19T16:46:33;11.07;;;6.10;;
21000;SDS011;10658;50.920;12.238;2023-03-19T16:54:36;31.13;;;16.48;;
21000;SDS011;10658;50.920;12.238;2023-03-19T16:58:38;19.00;;;11.73;;
21000;SDS011;10658;50.920;12.238;2023-03-19T17:02:41;12.68;;;7.78;;
21000;SDS011;10658;50.920;12.238;2023-03-19T17:06:43;9.73;;;5.63;;
21000;SDS011;10658;50.920;12.238;2023-03-19T17:10:45;4.88;;;3.80;;
21000;SDS011;10658;50.920;12.238;2023-03-19T17:14:48;3.13;;;2.83;;
21000;SDS011;10658;50.920;12.238;2023-03-19T17:18:51;4.25;;;2.92;;
21000;SDS011;10658;50.920;12.238;2023-03-19T17:22:52;4.13;;;2.35;;
21000;SDS011;10658;50.920;12.238;2023-03-19T17:26:53;3.40;;;3.00;;
21000;SDS011;10658;50.920;12.238;2023-03-19T17:30:56;3.53;;;3.10;;
21000;SDS011;10658;50.920;12.238;2023-03-19T17:34:57;4.85;;;3.90;;
21000;SDS011;10658;50.920;12.238;2023-03-19T17:38:58;4.85;;;3.30;;
21000;SDS011;10658;50.920;12.238;2023-03-19T17:42:59;6.97;;;4.80;;
21000;SDS011;10658;50.920;12.238;2023-03-19T17:46:59;4.43;;;3.97;;
21000;SDS011;10658;50.920;12.238;2023-03-19T17:51:00;6.32;;;4.40;;
21000;SDS011;10658;50.920;12.238;2023-03-19T17:55:07;6.82;;;4.78;;
21000;SDS011;10658;50.920;12.238;2023-03-19T17:59:18;7.25;;;4.70;;
21000;SDS011;10658;50.920;12.238;2023-03-19T18:03:22;11.02;;;7.03;;
21000;SDS011;10658;50.920;12.238;2023-03-19T18:07:26;12.63;;;7.95;;
21000;SDS011;10658;50.920;12.238;2023-03-19T18:11:27;8.57;;;5.45;;
21000;SDS011;10658;50.920;12.238;2023-03-19T18:15:27;10.48;;;5.88;;
21000;SDS011;10658;50.920;12.238;2023-03-19T18:19:31;5.75;;;4.20;;
21000;SDS011;10658;50.920;12.238;2023-03-19T18:23:34;5.28;;;3.88;;
21000;SDS011;10658;50.920;12.238;2023-03-19T18:27:35;5.80;;;3.50;;
21000;SDS011;10658;50.920;12.238;2023-03-19T18:31:36;6.32;;;4.60;;
21000;SDS011;10658;50.920;12.238;2023-03-19T18:35:37;6.50;;;4.38;;
21000;SDS011;10658;50.920;12.238;2023-03-19T18:39:40;8.23;;;5.50;;
21000;SDS011;10658;50.920;12.238;2023-03-19T18:43:41;6.32;;;4.80;;
21000;SDS011;10658;50.920;12.238;2023-03-19T18:47:42;10.07;;;5.60;;
21000;SDS011;10658;50.920;12.238;2023-03-19T18:51:45;8.80;;;6.07;;
21000;SDS011;10658;50.920;12.238;2023-03-19T18:55:46;6.63;;;4.53;;
21000;SDS011;10658;50.920;12.238;2023-03-19T18:59:47;5.90;;;4.85;;
21000;SDS011;10658;50.920;12.238;2023-03-19T19:03:48;8.45;;;5.78;;
21000;SDS011;10658;50.920;12.238;2023-03-19T19:07:49;4.85;;;4.20;;
21000;SDS011;10658;50.920;12.238;2023-03-19T19:11:50;6.47;;;5.20;;
21000;SDS011;10658;50.920;12.238;2023-03-19T19:15:53;7.90;;;5.63;;
21000;SDS011;10658;50.920;12.238;2023-03-19T19:19:54;12.43;;;5.55;;
21000;SDS011;10658;50.920;12.238;2023-03-19T19:23:55;6.72;;;5.25;;
21000;SDS011;10658;50.920;12.238;2023-03-19T19:28:00;8.75;;;5.70;;
21000;SDS011;10658;50.920;12.238;2023-03-19T19:32:03;6.85;;;5.35;;
21000;SDS011;10658;50.920;12.238;2023-03-19T19:36:08;5.85;;;4.82;;
21000;SDS011;10658;50.920;12.238;2023-03-19T19:40:11;9.32;;;5.38;;
21000;SDS011;10658;50.920;12.238;2023-03-19T19:44:18;6.38;;;5.10;;
21000;SDS011;10658;50.920;12.238;2023-03-19T19:48:22;6.55;;;5.00;;
21000;SDS011;10658;50.920;12.238;2023-03-19T19:52:27;6.10;;;4.47;;
21000;SDS011;10658;50.920;12.238;2023-03-19T19:56:28;7.65;;;4.88;;
21000;SDS011;10658;50.920;12.238;2023-03-19T20:00:30;5.70;;;4.28;;
21000;SDS011;10658;50.920;12.238;2023-03-19T20:04:32;6.18;;;4.88;;
21000;SDS011;10658;50.920;12.238;2023-03-19T20:08:32;5.80;;;4.45;;
21000;SDS011;10658;50.920;12.238;2023-03-19T20:12:33;4.20;;;3.80;;
21000;SDS011;10658;50.920;12.238;2023-03-19T20:16:34;4.97;;;4.40;;
21000;SDS011;10658;50.920;12.238;2023-03-19T20:20:35;5.97;;;4.22;;
21000;SDS011;10658;50.920;12.238;2023-03-19T20:24:36;6.82;;;4.57;;
21000;SDS011;10658;50.920;12.238;2023-03-19T20:28:37;6.07;;;4.57;;
21000;SDS011;10658;50.920;12.238;2023-03-19T20:32:38;8.10;;;5.20;;
21000;SDS011;10658;50.920;12.238;2023-03-19T20:36:39;6.40;;;5.10;;
21000;SDS011;10658;50.920;12.238;2023-03-19T20:40:44;7.88;;;5.18;;
21000;SDS011;10658;50.920;12.238;2023-03-19T20:44:54;5.70;;;4.65;;
21000;SDS011;10658;50.920;12.238;2023-03-19T20:48:57;7.72;;;4.65;;
21000;SDS011;10658;50.920;12.238;2023-03-19T20:52:58;5.82;;;4.50;;
21000;SDS011;10658;50.920;12.238;2023-03-19T20:57:02;10.13;;;4.75;;
21000;SDS011;10658;50.920;12.238;2023-03-19T21:01:03;7.13;;;5.05;;
21000;SDS011;10658;50.920;12.238;2023-03-19T21:05:04;6.32;;;4.40;;
21000;SDS011;10658;50.920;12.238;2023-03-19T21:09:07;5.78;;;3.78;;
21000;SDS011;10658;50.920;12.238;2023-03-19T21:13:13;4.97;;;3.72;;
21000;SDS011;10658;50.920;12.238;2023-03-19T21:17:17;4.90;;;3.60;;
21000;SDS011;10658;50.920;12.238;2023-03-19T21:21:26;3.88;;;3.05;;
21000;SDS011;10658;50.920;12.238;2023-03-19T21:25:36;4.43;;;3.30;;
21000;SDS011;10658;50.920;12.238;2023-03-19T21:29:37;3.63;;;3.33;;
21000;SDS011;10658;50.920;12.238;2023-03-19T21:33:38;4.40;;;3.00;;
21000;SDS011;10658;50.920;12.238;2023-03-19T21:37:39;3.92;;;3.45;;
21000;SDS011;10658;50.920;12.238;2023-03-19T21:41:40;3.70;;;3.30;;
21000;SDS011;10658;50.920;12.238;2023-03-19T21:45:41;3.42;;;2.97;;
21000;SDS011;10658;50.920;12.238;2023-03-19T21:49:43;4.80;;;3.45;;
21000;SDS011;10658;50.920;12.238;2023-03-19T21:53:44;4.88;;;3.75;;
21000;SDS011;10658;50.920;12.238;2023-03-19T21:57:45;5.03;;;3.30;;
21000;SDS011;10658;50.920;12.238;2023-03-19T22:01:45;9.88;;;5.40;;
21000;SDS011;10658;50.920;12.238;2023-03-19T22:05:47;6.93;;;4.40;;
21000;SDS011;10658;50.920;12.238;2023-03-19T22:09:51;6.25;;;4.13;;
21000;SDS011;10658;50.920;12.238;2023-03-19T22:13:52;4.18;;;3.63;;
21000;SDS011;10658;50.920;12.238;2023-03-19T22:17:56;4.32;;;3.33;;
21000;SDS011;10658;50.920;12.238;2023-03-19T22:21:57;5.80;;;4.35;;
21000;SDS011;10658;50.920;12.238;2023-03-19T22:25:58;5.95;;;3.83;;
21000;SDS011;10658;50.920;12.238;2023-03-19T22:29:59;5.40;;;3.80;;
21000;SDS011;10658;50.920;12.238;2023-03-19T22:34:04;6.20;;;3.97;;
21000;SDS011;10658;50.920;12.238;2023-03-19T22:38:05;7.10;;;4.40;;
21000;SDS011;10658;50.920;12.238;2023-03-19T22:42:06;4.82;;;3.65;;
21000;SDS011;10658;50.920;12.238;2023-03-19T22:46:09;5.70;;;4.38;;
21000;SDS011;10658;50.920;12.238;2023-03-19T22:50:15;7.28;;;4.30;;
21000;SDS011;10658;50.920;12.238;2023-03-19T22:54:18;7.55;;;4.38;;
21000;SDS011;10658;50.920;12.238;2023-03-19T22:58:19;5.43;;;4.22;;
21000;SDS011;10658;50.920;12.238;2023-03-19T23:02:20;5.30;;;4.05;;
21000;SDS011;10658;50.920;12.238;2023-03-19T23:06:21;6.30;;;3.58;;
21000;SDS011;10658;50.920;12.238;2023-03-19T23:10:27;5.05;;;3.40;;
21000;SDS011;10658;50.920;12.238;2023-03-19T23:14:31;4.63;;;3.38;;
21000;SDS011;10658;50.920;12.238;2023-03-19T23:18:32;6.32;;;3.10;;
21000;SDS011;10658;50.920;12.238;2023-03-19T23:22:35;4.50;;;3.42;;
21000;SDS011;10658;50.920;12.238;2023-03-19T23:26:36;4.90;;;3.35;;
21000;SDS011;10658;50.920;12.238;2023-03-19T23:30:38;6.07;;;3.25;;
21000;SDS011;10658;50.920;12.238;2023-03-19T23:34:40;3.83;;;3.13;;
21000;SDS011;10658;50.920;12.238;2023-03-19T23:38:41;4.30;;;3.15;;
21000;SDS011;10658;50.920;12.238;2023-03-19T23:42:52;5.32;;;3.72;;
21000;SDS011;10658;50.920;12.238;2023-03-19T23:46:54;3.20;;;2.90;;
21000;SDS011;10658;50.920;12.238;2023-03-19T23:50:59;3.63;;;2.90;;
21000;SDS011;10658;50.920;12.238;2023-03-19T23:55:00;4.60;;;3.33;;
21000;SDS011;10658;50.920;12.238;2023-03-19T23:59:02;3.35;;;2.83;;
